Time;durP1;ratioP1;P1;durP2;ratioP2;P2;SDS_P1;SDS_P2;PMS_P1;PMS_P2;Temp;Humidity;BMP_temperature;BMP_pressure;BME280_temperature;BME280_humidity;BME280_pressure;Samples;Min_cycle;Max_cycle;Signal;HPM_P1;HPM_P2
2024/01/01 00:01:23;;;;;;;34.65;24.90;;;7.60;99.90;;;;;;5136920;27;20726;-86
2024/01/01 00:03:48;;;;;;;32.03;22.77;;;7.50;99.90;;;;;;5110199;27;20543;-85
2024/01/01 00:06:14;;;;;;;136.32;68.45;;;7.60;99.90;;;;;;5111387;27;20039;-87
2024/01/01 00:08:39;;;;;;;32.40;24.08;;;7.50;99.90;;;;;;5104969;27;20037;-86
2024/01/01 00:11:05;;;;;;;44.67;32.10;;;7.60;99.90;;;;;;5120461;27;20035;-86
2024/01/01 00:13:31;;;;;;;114.05;65.35;;;7.50;99.90;;;;;;5113084;27;20038;-86
2024/01/01 00:15:56;;;;;;;1999.90;999.90;;;7.60;99.90;;;;;;5141952;27;20056;-85
2024/01/01 00:18:22;;;;;;;45.78;32.33;;;7.50;99.90;;;;;;5110175;27;20081;-86
2024/01/01 00:20:48;;;;;;;77.55;46.72;;;7.60;99.90;;;;;;5143516;27;20098;-86
2024/01/01 00:23:13;;;;;;;53.53;36.90;;;7.60;99.90;;;;;;5132190;27;20058;-87
2024/01/01 00:25:39;;;;;;;56.97;37.03;;;7.60;99.90;;;;;;5110706;27;20030;-85
2024/01/01 00:28:06;;;;;;;53.08;33.83;;;7.60;99.90;;;;;;5116396;27;20047;-86
2024/01/01 00:30:32;;;;;;;45.70;30.75;;;7.60;99.90;;;;;;5106975;27;20679;-86
2024/01/01 00:32:57;;;;;;;46.90;31.52;;;7.60;99.90;;;;;;5114852;27;20116;-85
2024/01/01 00:35:23;;;;;;;47.10;31.35;;;7.60;99.90;;;;;;5108015;27;20126;-86
2024/01/01 00:37:49;;;;;;;46.63;31.98;;;7.60;99.90;;;;;;5126539;28;20070;-86
2024/01/01 00:40:15;;;;;;;55.50;36.30;;;7.60;99.90;;;;;;5107405;27;20044;-85
2024/01/01 00:42:42;;;;;;;60.13;38.92;;;7.60;99.90;;;;;;5143362;27;20041;-86
2024/01/01 00:45:09;;;;;;;38.35;27.73;;;7.60;99.90;;;;;;5129505;27;20141;-85
2024/01/01 00:47:35;;;;;;;38.85;25.17;;;7.60;99.90;;;;;;5133510;27;20081;-86
2024/01/01 00:50:02;;;;;;;45.10;30.13;;;7.60;99.90;;;;;;5127068;27;20054;-86
2024/01/01 00:52:28;;;;;;;49.30;31.98;;;7.60;99.90;;;;;;5113713;27;20034;-85
2024/01/01 00:54:54;;;;;;;61.75;37.60;;;7.50;99.90;;;;;;5113211;27;20376;-86
2024/01/01 00:57:19;;;;;;;1999.90;999.90;;;7.50;99.90;;;;;;5111174;27;20117;-86
2024/01/01 00:59:45;;;;;;;46.58;33.53;;;7.50;99.90;;;;;;5113002;27;20106;-87
2024/01/01 01:02:11;;;;;;;40.80;28.80;;;7.50;99.90;;;;;;5123691;27;20518;-87
2024/01/01 01:04:37;;;;;;;38.17;26.33;;;7.50;99.90;;;;;;5136436;27;20042;-86
2024/01/01 01:07:05;;;;;;;44.00;29.50;;;7.40;99.90;;;;;;5116092;27;20038;-83
2024/01/01 01:09:31;;;;;;;42.53;28.63;;;7.40;99.90;;;;;;5125009;27;20077;-87
2024/01/01 01:11:56;;;;;;;44.83;29.15;;;7.40;99.90;;;;;;5117005;27;20038;-85
2024/01/01 01:14:22;;;;;;;42.22;29.30;;;7.40;99.90;;;;;;5127669;27;20478;-86
2024/01/01 01:16:48;;;;;;;125.47;69.53;;;7.40;99.90;;;;;;5133982;27;20455;-84
2024/01/01 01:19:13;;;;;;;48.40;34.20;;;7.40;99.90;;;;;;5124513;27;20104;-85
2024/01/01 01:21:39;;;;;;;50.70;35.67;;;7.50;99.90;;;;;;5121782;27;20122;-85
2024/01/01 01:24:05;;;;;;;53.55;37.63;;;7.50;99.90;;;;;;5121785;27;20054;-86
2024/01/01 01:26:30;;;;;;;54.95;38.10;;;7.60;99.90;;;;;;5099151;27;20493;-88
2024/01/01 01:28:56;;;;;;;53.15;41.30;;;7.60;99.90;;;;;;5114046;27;20039;-85
2024/01/01 01:31:23;;;;;;;57.90;35.67;;;7.60;99.90;;;;;;5131025;27;20502;-85
2024/01/01 01:33:48;;;;;;;52.03;37.42;;;7.60;99.90;;;;;;5124388;27;20042;-85
2024/01/01 01:36:14;;;;;;;58.72;41.72;;;7.60;99.90;;;;;;5103651;28;20392;-83
2024/01/01 01:38:40;;;;;;;71.10;53.67;;;7.60;99.90;;;;;;5106205;27;20051;-87
2024/01/01 01:41:06;;;;;;;79.45;71.82;;;7.60;99.90;;;;;;5126490;27;20387;-85
2024/01/01 01:43:32;;;;;;;60.97;42.20;;;7.70;99.90;;;;;;5100099;27;20051;-85
2024/01/01 01:46:01;;;;;;;64.60;41.58;;;7.70;99.90;;;;;;5112678;27;20043;-83
2024/01/01 01:48:27;;;;;;;57.42;40.58;;;7.70;99.90;;;;;;5104570;28;20047;-86
2024/01/01 01:50:54;;;;;;;57.15;41.92;;;7.70;99.90;;;;;;5106629;27;20092;-87
2024/01/01 01:53:23;;;;;;;54.05;38.08;;;7.70;99.90;;;;;;5102544;27;20118;-85
2024/01/01 01:55:56;;;;;;;51.05;38.92;;;7.70;99.90;;;;;;5119267;27;20042;-85
2024/01/01 01:58:22;;;;;;;53.58;39.80;;;7.70;99.90;;;;;;5120425;27;20047;-86
2024/01/01 02:00:51;;;;;;;50.13;36.10;;;7.70;99.90;;;;;;5106559;28;20046;-86
2024/01/01 02:03:17;;;;;;;44.35;34.10;;;7.70;99.90;;;;;;5113524;27;20046;-84
2024/01/01 02:05:43;;;;;;;1999.90;999.90;;;7.70;99.90;;;;;;5122376;27;20475;-84
2024/01/01 02:08:09;;;;;;;1999.90;999.90;;;7.70;99.90;;;;;;5129302;27;20483;-85
2024/01/01 02:10:35;;;;;;;1999.90;999.90;;;7.80;99.90;;;;;;5120540;27;20081;-83
2024/01/01 02:13:00;;;;;;;1999.90;999.90;;;7.70;99.90;;;;;;5097223;28;20044;-87
2024/01/01 02:15:26;;;;;;;1999.90;999.90;;;7.80;99.90;;;;;;5105061;27;20122;-86
2024/01/01 02:17:52;;;;;;;1999.90;999.90;;;7.80;99.90;;;;;;5094819;28;20169;-87
2024/01/01 02:20:18;;;;;;;1999.90;999.90;;;7.80;99.90;;;;;;5105259;28;20097;-87
2024/01/01 02:22:44;;;;;;;1999.90;999.90;;;7.80;99.90;;;;;;5121499;27;20047;-85
2024/01/01 02:25:10;;;;;;;1999.90;999.90;;;7.70;99.90;;;;;;5117533;27;20081;-86
2024/01/01 02:27:37;;;;;;;1999.90;999.90;;;7.80;99.90;;;;;;5110540;27;20046;-86
2024/01/01 02:30:04;;;;;;;1999.90;999.90;;;7.80;99.90;;;;;;5129614;27;20073;-85
2024/01/01 02:32:29;;;;;;;1999.90;999.90;;;7.80;99.90;;;;;;5123549;27;20100;-85
2024/01/01 02:34:58;;;;;;;1999.90;999.90;;;7.80;99.90;;;;;;5098696;27;20039;-85
2024/01/01 02:37:24;;;;;;;1999.90;999.90;;;7.70;99.90;;;;;;5102110;27;20134;-83
2024/01/01 02:39:50;;;;;;;1999.90;999.90;;;7.70;99.90;;;;;;5098883;27;20125;-83
2024/01/01 02:42:15;;;;;;;1999.90;999.90;;;7.70;99.90;;;;;;5111571;27;20092;-86
2024/01/01 02:44:41;;;;;;;1999.90;999.90;;;7.60;99.90;;;;;;5098340;27;20034;-82
2024/01/01 02:47:07;;;;;;;1999.90;999.90;;;7.60;99.90;;;;;;5128122;27;20043;-86
2024/01/01 02:49:33;;;;;;;1999.90;999.90;;;7.60;99.90;;;;;;5111888;27;20035;-87
2024/01/01 02:51:58;;;;;;;1999.90;999.90;;;7.50;99.90;;;;;;5118166;27;20031;-87
2024/01/01 02:54:24;;;;;;;1999.90;999.90;;;7.40;99.90;;;;;;5116233;27;20112;-86
2024/01/01 02:56:50;;;;;;;1999.90;999.90;;;7.40;99.90;;;;;;5129438;27;20072;-82
2024/01/01 02:59:15;;;;;;;1999.90;999.90;;;7.40;99.90;;;;;;5107260;27;20082;-86
2024/01/01 03:01:41;;;;;;;1999.90;999.90;;;7.30;99.90;;;;;;5128591;27;20108;-86
2024/01/01 03:04:07;;;;;;;1999.90;999.90;;;7.30;99.90;;;;;;5117050;27;20632;-87
2024/01/01 03:06:32;;;;;;;1999.90;999.90;;;7.20;99.90;;;;;;5121143;27;20372;-85
2024/01/01 03:08:58;;;;;;;1999.90;999.90;;;7.20;99.90;;;;;;5109782;27;20384;-86
2024/01/01 03:11:24;;;;;;;1999.90;999.90;;;7.10;99.90;;;;;;5123308;27;20402;-86
2024/01/01 03:13:49;;;;;;;1999.90;999.90;;;7.10;99.90;;;;;;5125127;27;20076;-86
2024/01/01 03:16:15;;;;;;;1999.90;999.90;;;7.00;99.90;;;;;;5126781;27;20043;-85
2024/01/01 03:18:41;;;;;;;1999.90;999.90;;;7.00;99.90;;;;;;5129490;27;20150;-84
2024/01/01 03:21:07;;;;;;;1999.90;999.90;;;7.00;99.90;;;;;;5128430;27;20035;-85
2024/01/01 03:23:32;;;;;;;1999.90;999.90;;;7.00;99.90;;;;;;5125058;27;20051;-86
2024/01/01 03:25:58;;;;;;;1999.90;999.90;;;7.00;99.90;;;;;;5121720;27;20555;-85
2024/01/01 03:28:24;;;;;;;1999.90;999.90;;;7.00;99.90;;;;;;5102803;27;20107;-86
2024/01/01 03:30:50;;;;;;;1999.90;999.90;;;7.00;99.90;;;;;;5124448;27;20078;-86
2024/01/01 03:33:15;;;;;;;1999.90;999.90;;;7.00;99.90;;;;;;5127728;27;20066;-87
2024/01/01 03:35:41;;;;;;;1999.90;999.90;;;7.00;99.90;;;;;;5098785;27;20083;-86
2024/01/01 03:38:07;;;;;;;1999.90;999.90;;;7.00;99.90;;;;;;5097683;28;20055;-86
2024/01/01 03:40:36;;;;;;;1999.90;999.90;;;7.00;99.90;;;;;;5118803;27;20043;-83
2024/01/01 03:43:02;;;;;;;1999.90;999.90;;;7.00;99.90;;;;;;5102386;27;20083;-88
2024/01/01 03:45:28;;;;;;;1999.90;999.90;;;7.10;99.90;;;;;;5100874;27;20081;-87
2024/01/01 03:47:54;;;;;;;1999.90;999.90;;;7.00;99.90;;;;;;5120624;27;20453;-86
2024/01/01 03:50:20;;;;;;;1999.90;999.90;;;7.00;99.90;;;;;;5109538;28;20028;-82
2024/01/01 03:52:46;;;;;;;1999.90;999.90;;;7.00;99.90;;;;;;5110335;27;20035;-86
2024/01/01 03:55:12;;;;;;;1999.90;999.90;;;7.00;99.90;;;;;;5100445;28;20658;-86
2024/01/01 03:57:38;;;;;;;1999.90;999.90;;;7.00;99.90;;;;;;5103710;28;20036;-86
2024/01/01 04:00:04;;;;;;;1999.90;999.90;;;7.00;99.90;;;;;;5102423;27;20039;-84
2024/01/01 04:02:30;;;;;;;1999.90;999.90;;;7.00;99.90;;;;;;5126873;27;20046;-88
2024/01/01 04:04:56;;;;;;;1999.90;999.90;;;7.00;99.90;;;;;;5118699;27;20690;-86
2024/01/01 04:07:21;;;;;;;1999.90;999.90;;;7.00;99.90;;;;;;5121737;27;20434;-87
2024/01/01 04:09:47;;;;;;;1999.90;999.90;;;7.00;99.90;;;;;;5096328;28;20042;-86
2024/01/01 04:12:13;;;;;;;1999.90;999.90;;;7.00;99.90;;;;;;5098877;28;20036;-86
2024/01/01 04:14:39;;;;;;;1999.90;999.90;;;7.00;99.90;;;;;;5118969;27;20031;-86
2024/01/01 04:17:05;;;;;;;1999.90;999.90;;;7.00;99.90;;;;;;5127694;27;20073;-85
2024/01/01 04:19:31;;;;;;;1999.90;999.90;;;6.90;99.90;;;;;;5114045;28;20067;-86
2024/01/01 04:21:56;;;;;;;22.52;20.13;;;6.90;99.90;;;;;;5095918;28;20077;-86
2024/01/01 04:24:22;;;;;;;90.47;45.53;;;7.00;99.90;;;;;;5125355;28;20055;-86
2024/01/01 04:26:48;;;;;;;1999.90;999.90;;;6.90;99.90;;;;;;5115666;28;20043;-85
2024/01/01 04:29:16;;;;;;;1999.90;999.90;;;6.90;99.90;;;;;;5121215;28;20023;-85
2024/01/01 04:31:41;;;;;;;1999.90;999.90;;;6.90;99.90;;;;;;5110835;28;20399;-85
2024/01/01 04:34:07;;;;;;;1999.90;999.90;;;6.90;99.90;;;;;;5125221;28;20031;-85
2024/01/01 04:36:33;;;;;;;1999.90;999.90;;;6.90;99.90;;;;;;5126429;28;20074;-86
2024/01/01 04:38:59;;;;;;;1999.90;999.90;;;6.90;99.90;;;;;;5103208;28;20032;-85
2024/01/01 04:41:25;;;;;;;1999.90;999.90;;;6.90;99.90;;;;;;5117049;28;20046;-85
2024/01/01 04:43:51;;;;;;;1999.90;999.90;;;6.90;99.90;;;;;;5113622;28;20032;-84
2024/01/01 04:46:19;;;;;;;1999.90;999.90;;;6.90;99.90;;;;;;5107188;28;20031;-84
2024/01/01 04:48:45;;;;;;;1999.90;999.90;;;6.90;99.90;;;;;;5111009;28;20074;-85
2024/01/01 04:51:11;;;;;;;1999.90;999.90;;;6.90;99.90;;;;;;5093675;28;20142;-85
2024/01/01 04:53:36;;;;;;;1999.90;999.90;;;6.90;99.90;;;;;;5120752;28;20756;-85
2024/01/01 04:56:02;;;;;;;1999.90;999.90;;;6.90;99.90;;;;;;5111051;28;20046;-85
2024/01/01 04:58:28;;;;;;;1999.90;999.90;;;6.90;99.90;;;;;;5125162;28;20130;-85
2024/01/01 05:00:53;;;;;;;1999.90;999.90;;;6.90;99.90;;;;;;5106465;28;20054;-85
2024/01/01 05:03:19;;;;;;;1999.90;999.90;;;6.80;99.90;;;;;;5098342;28;20115;-84
2024/01/01 05:05:45;;;;;;;1999.90;999.90;;;6.90;99.90;;;;;;5117193;28;20047;-85
2024/01/01 05:08:11;;;;;;;1999.90;999.90;;;6.80;99.90;;;;;;5098968;28;20048;-85
2024/01/01 05:10:38;;;;;;;1999.90;999.90;;;6.90;99.90;;;;;;5125354;28;20554;-84
2024/01/01 05:13:03;;;;;;;1999.90;999.90;;;6.90;99.90;;;;;;5125727;28;20111;-82
2024/01/01 05:15:29;;;;;;;1999.90;999.90;;;6.90;99.90;;;;;;5114301;28;20142;-85
2024/01/01 05:17:55;;;;;;;1999.90;999.90;;;6.90;99.90;;;;;;5122232;28;20074;-85
2024/01/01 05:20:20;;;;;;;1999.90;999.90;;;6.90;99.90;;;;;;5092605;28;20051;-84
2024/01/01 05:22:46;;;;;;;1999.90;999.90;;;6.90;99.90;;;;;;5108947;28;20054;-84
2024/01/01 05:25:12;;;;;;;1999.90;999.90;;;6.90;99.90;;;;;;5095888;27;20081;-85
2024/01/01 05:27:37;;;;;;;1999.90;999.90;;;6.90;99.90;;;;;;5113385;27;20039;-84
2024/01/01 05:30:06;;;;;;;1999.90;999.90;;;7.00;99.90;;;;;;5125143;27;20035;-86
2024/01/01 05:32:33;;;;;;;1999.90;999.90;;;7.00;99.90;;;;;;5103295;27;20461;-85
2024/01/01 05:34:59;;;;;;;1999.90;999.90;;;6.90;99.90;;;;;;5123101;27;20043;-85
2024/01/01 05:37:25;;;;;;;1999.90;999.90;;;6.90;99.90;;;;;;5116251;27;20047;-86
2024/01/01 05:39:51;;;;;;;1999.90;999.90;;;6.90;99.90;;;;;;5112844;27;20047;-84
2024/01/01 05:42:17;;;;;;;1999.90;999.90;;;6.90;99.90;;;;;;5106868;28;20094;-83
2024/01/01 05:44:42;;;;;;;1999.90;999.90;;;6.90;99.90;;;;;;5128304;27;20209;-84
2024/01/01 05:47:08;;;;;;;1999.90;999.90;;;6.90;99.90;;;;;;5121119;27;20055;-84
2024/01/01 05:49:33;;;;;;;1999.90;999.90;;;6.90;99.90;;;;;;5122586;27;20031;-84
2024/01/01 05:51:59;;;;;;;1999.90;999.90;;;6.90;99.90;;;;;;5114337;27;20106;-83
2024/01/01 05:54:25;;;;;;;1999.90;999.90;;;6.90;99.90;;;;;;5105442;28;20093;-84
2024/01/01 05:56:50;;;;;;;1999.90;999.90;;;7.00;99.90;;;;;;5105444;27;20050;-84
2024/01/01 05:59:16;;;;;;;1999.90;999.90;;;7.00;99.90;;;;;;5110709;27;20047;-84
2024/01/01 06:01:41;;;;;;;1999.90;999.90;;;7.10;99.90;;;;;;5100521;28;20043;-82
2024/01/01 06:04:07;;;;;;;1999.90;999.90;;;7.00;99.90;;;;;;5099827;28;20517;-83
2024/01/01 06:06:33;;;;;;;1999.90;999.90;;;7.00;99.90;;;;;;5121664;27;20039;-84
2024/01/01 06:08:58;;;;;;;1999.90;999.90;;;7.10;99.90;;;;;;5110360;27;20066;-84
2024/01/01 06:11:24;;;;;;;1999.90;999.90;;;7.00;99.90;;;;;;5122808;27;20399;-84
2024/01/01 06:13:49;;;;;;;1999.90;999.90;;;7.10;99.90;;;;;;5125274;27;20038;-84
2024/01/01 06:16:15;;;;;;;1999.90;999.90;;;7.10;99.90;;;;;;5117544;27;20114;-84
2024/01/01 06:18:42;;;;;;;1999.90;999.90;;;7.10;99.90;;;;;;5103637;27;20042;-82
2024/01/01 06:21:08;;;;;;;1999.90;999.90;;;7.20;99.90;;;;;;5128366;27;20171;-83
2024/01/01 06:23:33;;;;;;;1999.90;999.90;;;7.10;99.90;;;;;;5117486;27;20142;-84
2024/01/01 06:25:59;;;;;;;1999.90;999.90;;;7.10;99.90;;;;;;5129224;27;20585;-83
2024/01/01 06:28:26;;;;;;;1999.90;999.90;;;7.10;99.90;;;;;;5111443;27;20044;-83
2024/01/01 06:30:52;;;;;;;1999.90;999.90;;;7.10;99.90;;;;;;5120705;27;20510;-82
2024/01/01 06:33:17;;;;;;;1999.90;999.90;;;7.10;99.90;;;;;;5109605;27;20059;-83
2024/01/01 06:35:43;;;;;;;1999.90;999.90;;;7.10;99.90;;;;;;5127140;27;20395;-84
2024/01/01 06:38:09;;;;;;;1999.90;999.90;;;7.10;99.90;;;;;;5126296;27;20112;-84
2024/01/01 06:40:34;;;;;;;1999.90;999.90;;;7.10;99.90;;;;;;5125239;27;20047;-83
2024/01/01 06:43:00;;;;;;;1999.90;999.90;;;7.10;99.90;;;;;;5124909;27;20040;-83
2024/01/01 06:45:26;;;;;;;30.25;28.13;;;7.20;99.90;;;;;;5121839;27;20047;-82
2024/01/01 06:47:51;;;;;;;31.00;28.40;;;7.20;99.90;;;;;;5118410;27;20043;-84
2024/01/01 06:50:17;;;;;;;31.90;29.35;;;7.30;99.90;;;;;;5116741;27;20050;-84
2024/01/01 06:52:42;;;;;;;23.48;21.08;;;7.30;99.90;;;;;;5119897;27;20394;-82
2024/01/01 06:55:08;;;;;;;23.25;20.83;;;7.30;99.90;;;;;;5119506;27;20035;-83
2024/01/01 06:57:34;;;;;;;24.10;21.95;;;7.30;99.90;;;;;;5124801;27;20177;-83
2024/01/01 06:59:59;;;;;;;68.82;64.28;;;7.30;99.90;;;;;;5120260;27;20118;-83
2024/01/01 07:02:25;;;;;;;43.92;40.88;;;7.30;99.90;;;;;;5111421;27;20035;-83
2024/01/01 07:04:51;;;;;;;47.17;43.95;;;7.30;99.90;;;;;;5103148;27;20421;-84
2024/01/01 07:07:17;;;;;;;69.75;65.60;;;7.30;99.90;;;;;;5098020;27;20047;-83
2024/01/01 07:09:43;;;;;;;47.50;43.88;;;7.30;99.90;;;;;;5125438;27;20053;-84
2024/01/01 07:12:27;;;;;;;30.88;28.25;;;7.30;99.90;;;;;;5118026;27;20114;-83
2024/01/01 07:14:53;;;;;;;34.90;32.40;;;7.30;99.90;;;;;;5116840;27;20070;-84
2024/01/01 07:17:19;;;;;;;36.67;34.05;;;7.30;99.90;;;;;;5111547;27;20277;-83
2024/01/01 07:19:45;;;;;;;37.45;34.90;;;7.30;99.90;;;;;;5113308;27;20077;-83
2024/01/01 07:22:10;;;;;;;40.72;37.47;;;7.30;99.90;;;;;;5127129;27;20129;-85
2024/01/01 07:24:36;;;;;;;48.70;45.90;;;7.50;99.90;;;;;;5110040;27;20384;-83
2024/01/01 07:27:02;;;;;;;608.67;291.08;;;7.50;99.90;;;;;;5129516;27;20399;-85
2024/01/01 07:29:30;;;;;;;46.15;43.45;;;7.20;99.90;;;;;;5110143;27;20062;-83
2024/01/01 07:31:56;;;;;;;41.22;39.20;;;6.90;99.90;;;;;;5119174;27;20110;-84
2024/01/01 07:34:21;;;;;;;36.47;34.47;;;6.70;99.90;;;;;;5126745;27;20216;-83
2024/01/01 07:36:50;;;;;;;61.55;58.65;;;6.50;99.90;;;;;;5125777;27;20035;-83
2024/01/01 07:39:19;;;;;;;49.72;47.28;;;6.40;99.90;;;;;;5123806;27;20031;-82
2024/01/01 07:41:46;;;;;;;10.95;9.95;;;6.30;99.90;;;;;;5098351;28;20043;-81
2024/01/01 07:44:11;;;;;;;13.18;12.00;;;6.40;99.90;;;;;;5104487;27;20042;-84
2024/01/01 07:46:37;;;;;;;310.23;74.22;;;6.50;99.90;;;;;;5110715;27;20042;-83
2024/01/01 07:49:05;;;;;;;14.43;13.25;;;6.50;99.90;;;;;;5126139;27;20493;-83
2024/01/01 07:51:31;;;;;;;14.32;12.93;;;6.50;99.90;;;;;;5113093;27;20047;-84
2024/01/01 07:53:57;;;;;;;15.65;14.07;;;6.50;99.90;;;;;;5125113;27;20459;-82
2024/01/01 07:56:22;;;;;;;13.88;12.57;;;6.50;99.90;;;;;;5106749;28;20039;-83
2024/01/01 07:58:49;;;;;;;13.48;12.52;;;6.50;99.90;;;;;;5119943;27;20038;-83
2024/01/01 08:01:18;;;;;;;13.88;12.80;;;6.40;99.90;;;;;;5101826;28;20051;-83
2024/01/01 08:03:44;;;;;;;13.48;12.18;;;6.50;99.90;;;;;;5103569;27;20043;-83
2024/01/01 08:06:10;;;;;;;12.65;11.65;;;6.40;99.90;;;;;;5099605;27;20046;-84
2024/01/01 08:08:36;;;;;;;13.30;12.02;;;6.40;99.90;;;;;;5114080;27;20506;-82
2024/01/01 08:11:01;;;;;;;13.20;12.20;;;6.40;99.90;;;;;;5122731;27;20068;-84
2024/01/01 08:13:27;;;;;;;14.13;12.80;;;6.40;99.90;;;;;;5103562;27;20039;-84
2024/01/01 08:15:53;;;;;;;14.43;13.23;;;6.50;99.90;;;;;;5109833;28;20031;-83
2024/01/01 08:18:18;;;;;;;15.38;13.10;;;6.50;99.90;;;;;;5117022;27;20035;-83
2024/01/01 08:20:44;;;;;;;13.80;12.57;;;6.50;99.90;;;;;;5110439;28;20042;-83
2024/01/01 08:23:10;;;;;;;14.88;13.55;;;6.60;99.90;;;;;;5119047;28;20051;-83
2024/01/01 08:25:36;;;;;;;15.00;13.70;;;6.60;99.90;;;;;;5099899;28;20039;-84
2024/01/01 08:28:02;;;;;;;14.45;13.27;;;6.60;99.90;;;;;;5112816;28;20097;-84
2024/01/01 08:30:28;;;;;;;14.02;12.75;;;6.60;99.90;;;;;;5121449;28;20123;-84
2024/01/01 08:32:53;;;;;;;13.70;12.48;;;6.60;99.90;;;;;;5097926;28;20028;-83
2024/01/01 08:35:19;;;;;;;15.25;12.98;;;6.60;99.90;;;;;;5107131;28;20035;-84
2024/01/01 08:37:44;;;;;;;15.80;14.57;;;6.70;99.90;;;;;;5121117;28;20469;-84
2024/01/01 08:40:11;;;;;;;15.13;13.90;;;6.70;99.90;;;;;;5107727;28;20050;-84
2024/01/01 08:42:37;;;;;;;15.10;13.85;;;6.70;99.90;;;;;;5114146;28;20047;-84
2024/01/01 08:45:03;;;;;;;16.73;13.95;;;6.80;99.90;;;;;;5101564;28;20043;-84
2024/01/01 08:47:29;;;;;;;14.80;13.50;;;6.80;99.90;;;;;;5108189;28;20039;-85
2024/01/01 08:49:55;;;;;;;15.95;14.38;;;6.80;99.90;;;;;;5118982;28;20055;-85
2024/01/01 08:52:21;;;;;;;15.10;13.63;;;6.80;99.90;;;;;;5115945;28;20601;-84
2024/01/01 08:54:47;;;;;;;15.77;14.20;;;6.80;99.90;;;;;;5120627;28;20075;-83
2024/01/01 08:57:13;;;;;;;23.45;21.50;;;7.00;99.90;;;;;;5120896;28;20782;-82
2024/01/01 08:59:39;;;;;;;14.88;13.43;;;7.10;99.90;;;;;;5096749;27;20131;-83
2024/01/01 09:02:06;;;;;;;21.58;20.27;;;7.00;99.90;;;;;;5117113;27;20089;-83
2024/01/01 09:04:32;;;;;;;14.15;12.70;;;7.00;99.90;;;;;;5130832;27;20118;-83
2024/01/01 09:07:00;;;;;;;12.93;11.82;;;6.90;99.90;;;;;;5122669;27;20066;-83
2024/01/01 09:09:29;;;;;;;11.05;10.25;;;6.80;99.90;;;;;;5120696;27;20811;-84
2024/01/01 09:11:55;;;;;;;12.05;11.07;;;6.70;99.90;;;;;;5122932;27;20050;-83
2024/01/01 09:14:21;;;;;;;14.32;13.18;;;6.70;99.90;;;;;;5130012;27;20577;-82
2024/01/01 09:16:47;;;;;;;13.45;12.45;;;6.60;99.90;;;;;;5124869;27;20042;-82
2024/01/01 09:19:16;;;;;;;14.07;12.98;;;6.60;99.90;;;;;;5138637;27;20643;-84
2024/01/01 09:21:43;;;;;;;1999.90;999.90;;;6.60;99.90;;;;;;5101355;27;20035;-82
2024/01/01 09:24:09;;;;;;;1999.90;999.90;;;6.60;99.90;;;;;;5113405;27;20399;-84
2024/01/01 09:26:36;;;;;;;1999.90;999.90;;;6.60;99.90;;;;;;5104900;27;20039;-83
2024/01/01 09:29:02;;;;;;;1999.90;999.90;;;6.60;99.90;;;;;;5131610;27;20043;-83
2024/01/01 09:31:27;;;;;;;1999.90;999.90;;;6.60;99.90;;;;;;5110422;27;20035;-84
2024/01/01 09:33:55;;;;;;;1999.90;999.90;;;6.60;99.90;;;;;;5106310;27;20390;-83
2024/01/01 09:36:20;;;;;;;136.88;38.85;;;6.60;99.90;;;;;;5119820;27;20058;-83
2024/01/01 09:38:46;;;;;;;16.13;14.98;;;6.60;99.90;;;;;;5094294;27;20040;-82
2024/01/01 09:41:15;;;;;;;17.60;16.30;;;6.70;99.90;;;;;;5112733;27;20123;-83
2024/01/01 09:43:42;;;;;;;17.98;16.65;;;6.70;99.90;;;;;;5115068;27;20038;-83
2024/01/01 09:46:08;;;;;;;17.80;16.60;;;6.70;99.90;;;;;;5107221;27;20040;-83
2024/01/01 09:48:34;;;;;;;17.52;16.13;;;6.70;99.90;;;;;;5108308;27;20097;-83
2024/01/01 09:51:02;;;;;;;17.20;16.05;;;6.80;99.90;;;;;;5130626;27;20039;-83
2024/01/01 09:53:30;;;;;;;18.95;17.50;;;6.80;99.90;;;;;;5128985;27;20144;-83
2024/01/01 09:55:55;;;;;;;19.88;18.27;;;6.90;99.90;;;;;;5109662;27;20031;-83
2024/01/01 09:58:21;;;;;;;21.75;20.02;;;7.00;99.90;;;;;;5124595;27;20049;-83
2024/01/01 10:00:49;;;;;;;19.58;17.83;;;7.00;99.90;;;;;;5113289;27;20039;-84
2024/01/01 10:03:15;;;;;;;19.98;18.23;;;7.10;99.90;;;;;;5112503;27;20031;-84
2024/01/01 10:05:41;;;;;;;19.60;17.73;;;7.20;99.90;;;;;;5130524;27;20043;-84
2024/01/01 10:08:09;;;;;;;19.85;17.95;;;7.10;99.90;;;;;;5127320;27;20031;-84
2024/01/01 10:10:34;;;;;;;26.65;25.05;;;7.20;99.90;;;;;;5113393;27;20039;-83
2024/01/01 10:13:07;;;;;;;22.25;20.52;;;7.20;99.90;;;;;;5117917;27;20023;-82
2024/01/01 10:15:33;;;;;;;18.63;16.63;;;7.20;99.90;;;;;;5102939;28;20043;-83
2024/01/01 10:18:13;;;;;;;16.77;15.30;;;7.30;99.90;;;;;;5119070;27;20039;-83
2024/01/01 10:20:40;;;;;;;17.45;15.85;;;7.40;99.90;;;;;;5121960;27;20047;-84
2024/01/01 10:23:21;;;;;;;18.42;16.83;;;7.40;99.90;;;;;;5115705;27;20055;-82
2024/01/01 10:25:49;;;;;;;19.73;18.13;;;7.40;99.90;;;;;;5084870;28;20074;-83
2024/01/01 10:28:16;;;;;;;19.70;18.10;;;7.50;99.90;;;;;;5088550;28;20043;-83
2024/01/01 10:30:47;;;;;;;20.60;18.50;;;7.50;99.90;;;;;;5091293;28;20071;-83
2024/01/01 10:33:14;;;;;;;19.42;17.67;;;7.60;99.90;;;;;;5071329;28;20043;-83
2024/01/01 10:35:40;;;;;;;20.65;18.55;;;7.80;99.90;;;;;;5107235;28;20495;-83
2024/01/01 10:38:06;;;;;;;18.45;15.38;;;7.80;99.90;;;;;;5081319;28;20043;-84
2024/01/01 10:40:32;;;;;;;15.75;14.00;;;7.90;99.90;;;;;;5085272;28;20491;-83
2024/01/01 10:42:58;;;;;;;15.98;14.25;;;7.90;99.90;;;;;;5075456;28;20054;-84
2024/01/01 10:45:24;;;;;;;22.52;20.75;;;7.90;99.90;;;;;;5086000;28;20473;-83
2024/01/01 10:47:52;;;;;;;20.88;15.30;;;8.00;99.90;;;;;;5098382;28;20119;-83
2024/01/01 10:50:29;;;;;;;17.00;13.70;;;8.10;99.90;;;;;;5089624;28;20079;-83
2024/01/01 10:53:07;;;;;;;15.60;13.50;;;8.10;99.90;;;;;;5074321;28;20042;-83
2024/01/01 10:55:33;;;;;;;17.98;14.93;;;8.20;99.90;;;;;;5086802;28;20032;-83
2024/01/01 10:58:20;;;;;;;14.48;13.02;;;8.20;99.90;;;;;;5079836;28;20039;-84
2024/01/01 11:01:04;;;;;;;16.55;12.75;;;8.10;99.90;;;;;;5066500;28;20054;-83
2024/01/01 11:03:34;;;;;;;18.70;13.68;;;8.10;99.90;;;;;;5091376;28;20043;-83
2024/01/01 11:06:29;;;;;;;17.15;13.57;;;8.00;99.90;;;;;;5085313;28;20044;-83
2024/01/01 11:08:56;;;;;;;16.33;14.77;;;7.90;99.90;;;;;;5108525;28;20396;-83
2024/01/01 11:11:30;;;;;;;21.77;19.80;;;7.90;99.90;;;;;;5096924;28;20400;-82
2024/01/01 11:13:56;;;;;;;;;;;7.90;99.90;;;;;;5078535;28;20039;-84
2024/01/01 11:16:22;;;;;;;18.58;14.27;;;8.00;99.90;;;;;;5088466;28;20362;-83
2024/01/01 11:18:48;;;;;;;47.97;44.58;;;7.90;99.90;;;;;;5109493;28;20040;-82
2024/01/01 11:21:31;;;;;;;15.38;13.95;;;7.90;99.90;;;;;;5102868;28;20154;-84
2024/01/01 11:24:01;;;;;;;20.90;18.92;;;7.90;99.90;;;;;;5123081;27;20058;-82
2024/01/01 11:26:34;;;;;;;15.60;14.02;;;7.80;99.90;;;;;;5113843;27;20042;-84
2024/01/01 11:29:16;;;;;;;18.67;15.00;;;7.80;99.90;;;;;;5113900;27;20137;-83
2024/01/01 11:31:41;;;;;;;16.75;14.80;;;7.80;99.90;;;;;;5124355;27;20113;-83
2024/01/01 11:34:09;;;;;;;29.65;26.70;;;7.90;99.90;;;;;;5118107;27;20118;-83
2024/01/01 11:36:40;;;;;;;17.58;12.55;;;7.90;99.90;;;;;;5143224;27;20050;-84
2024/01/01 11:39:06;;;;;;;15.98;13.27;;;7.80;99.90;;;;;;5121135;27;20117;-84
2024/01/01 11:41:33;;;;;;;16.80;12.30;;;7.80;99.90;;;;;;5130055;27;20460;-83
2024/01/01 11:44:09;;;;;;;18.13;13.35;;;7.90;99.90;;;;;;5136610;27;20048;-83
2024/01/01 11:46:35;;;;;;;18.02;11.70;;;7.90;99.90;;;;;;5147895;27;20453;-84
2024/01/01 11:49:02;;;;;;;14.65;12.02;;;7.90;99.90;;;;;;5122086;27;20550;-83
2024/01/01 11:51:31;;;;;;;17.52;12.43;;;8.00;99.90;;;;;;5109130;27;20042;-83
2024/01/01 11:54:10;;;;;;;16.55;14.73;;;8.00;99.90;;;;;;5122355;27;20100;-83
2024/01/01 11:56:37;;;;;;;13.10;11.70;;;8.10;99.90;;;;;;5137671;27;20034;-83
2024/01/01 11:59:06;;;;;;;16.00;11.82;;;8.10;99.90;;;;;;5098272;27;20035;-83
2024/01/01 12:01:32;;;;;;;17.00;11.20;;;8.20;99.90;;;;;;5143124;27;20383;-83
2024/01/01 12:04:00;;;;;;;15.63;12.50;;;8.20;99.90;;;;;;5117920;27;20459;-82
2024/01/01 12:06:26;;;;;;;15.23;11.38;;;8.30;99.90;;;;;;5116979;27;20602;-83
2024/01/01 12:09:11;;;;;;;14.52;11.35;;;8.40;99.90;;;;;;5113223;27;20046;-81
2024/01/01 12:11:42;;;;;;;19.45;10.18;;;8.50;99.90;;;;;;5117271;27;20030;-83
2024/01/01 12:14:08;;;;;;;15.05;11.23;;;8.70;99.90;;;;;;5121325;27;20095;-82
2024/01/01 12:16:35;;;;;;;12.55;10.95;;;8.80;99.90;;;;;;5112372;27;20038;-83
2024/01/01 12:19:02;;;;;;;14.20;10.30;;;8.90;99.90;;;;;;5129957;27;20091;-83
2024/01/01 12:21:42;;;;;;;16.20;10.95;;;8.90;99.90;;;;;;5108146;27;20039;-82
2024/01/01 12:24:12;;;;;;;125.32;68.72;;;8.80;99.90;;;;;;5115581;27;20401;-82